Time;durP1;ratioP1;P1;durP2;ratioP2;P2;SDS_P1;SDS_P2;PMS_P1;PMS_P2;Temp;Humidity;BMP_temperature;BMP_pressure;BME280_temperature;BME280_humidity;BME280_pressure;Samples;Min_cycle;Max_cycle;Signal;HPM_P1;HPM_P2
2022/07/18 00:00:09;;;;;;;3.70;2.33;;;20.10;49.40;;;;;;5068496;28;20211;-76
2022/07/18 00:02:35;;;;;;;5.50;2.03;;;20.00;49.30;;;;;;5071109;28;20213;-76
2022/07/18 00:05:01;;;;;;;2.90;1.90;;;19.90;47.90;;;;;;5065453;28;20518;-74
2022/07/18 00:07:27;;;;;;;4.60;2.20;;;19.90;47.40;;;;;;5064674;28;20204;-76
2022/07/18 00:09:52;;;;;;;3.43;2.47;;;19.90;46.50;;;;;;5067008;28;20785;-76
2022/07/18 00:12:18;;;;;;;6.30;2.07;;;19.90;46.20;;;;;;5071287;28;20246;-75
2022/07/18 00:14:44;;;;;;;2.73;2.47;;;20.00;45.80;;;;;;5065705;28;20592;-77
2022/07/18 00:17:10;;;;;;;4.00;2.20;;;20.00;45.90;;;;;;5069908;28;20196;-73
2022/07/18 00:19:37;;;;;;;5.67;2.23;;;20.00;47.40;;;;;;5059817;28;20501;-76
2022/07/18 00:22:04;;;;;;;3.87;2.90;;;20.00;46.70;;;;;;5070525;28;20951;-75
2022/07/18 00:24:31;;;;;;;3.70;3.13;;;20.00;48.30;;;;;;5060819;28;20522;-74
2022/07/18 00:26:57;;;;;;;4.70;3.33;;;20.00;50.50;;;;;;5071106;28;20429;-76
2022/07/18 00:29:23;;;;;;;3.50;2.60;;;20.00;51.30;;;;;;5068248;28;20426;-74
2022/07/18 00:31:48;;;;;;;6.00;3.20;;;19.80;51.60;;;;;;5064566;28;21007;-75
2022/07/18 00:34:14;;;;;;;10.00;2.87;;;19.70;52.00;;;;;;5063282;28;20287;-75
2022/07/18 00:36:39;;;;;;;3.80;2.80;;;19.60;52.40;;;;;;5071140;28;20189;-75
2022/07/18 00:39:05;;;;;;;5.23;2.73;;;19.50;52.60;;;;;;5071104;28;20207;-75
2022/07/18 00:41:30;;;;;;;4.00;2.60;;;19.40;53.00;;;;;;5066444;28;20544;-75
2022/07/18 00:43:57;;;;;;;6.77;2.70;;;19.40;52.90;;;;;;5068747;28;20233;-73
2022/07/18 00:46:27;;;;;;;4.10;3.20;;;19.40;52.20;;;;;;5071363;28;20210;-76
2022/07/18 00:48:53;;;;;;;5.87;2.40;;;19.40;51.70;;;;;;5070106;28;20418;-75
2022/07/18 00:51:20;;;;;;;2.90;2.07;;;19.20;49.70;;;;;;5071915;28;20517;-74
2022/07/18 00:53:48;;;;;;;3.50;1.87;;;19.20;48.30;;;;;;5066797;28;20790;-75
2022/07/18 00:56:17;;;;;;;2.43;1.90;;;19.20;47.70;;;;;;5066183;28;20419;-76
2022/07/18 00:58:43;;;;;;;5.47;3.00;;;19.20;47.90;;;;;;5066036;28;20469;-74
2022/07/18 01:03:54;;;;;;;5.03;2.70;;;19.20;52.90;;;;;;5065982;28;20530;-75
2022/07/18 01:06:20;;;;;;;3.10;2.63;;;19.10;53.70;;;;;;5060590;28;20446;-76
2022/07/18 01:08:45;;;;;;;4.00;2.67;;;19.20;53.70;;;;;;5065887;28;20497;-74
2022/07/18 01:11:12;;;;;;;9.33;2.90;;;19.20;53.60;;;;;;5057788;28;20184;-78
2022/07/18 01:13:38;;;;;;;7.33;3.10;;;19.10;53.30;;;;;;5065320;28;20184;-74
2022/07/18 01:16:04;;;;;;;3.70;2.70;;;19.00;53.70;;;;;;5062752;28;20849;-75
2022/07/18 01:18:30;;;;;;;5.37;2.87;;;19.00;53.80;;;;;;5066750;28;20215;-75
2022/07/18 01:20:55;;;;;;;5.73;2.63;;;18.90;54.10;;;;;;5069948;28;20437;-75
2022/07/18 01:23:21;;;;;;;4.13;2.77;;;18.90;54.00;;;;;;5069555;28;20235;-75
2022/07/18 01:25:47;;;;;;;6.40;3.00;;;18.80;54.40;;;;;;5061217;28;20204;-72
2022/07/18 01:28:13;;;;;;;4.80;2.73;;;18.70;54.50;;;;;;5074259;28;20247;-74
2022/07/18 01:30:39;;;;;;;4.00;2.70;;;18.60;54.90;;;;;;5073019;28;20594;-74
2022/07/18 01:33:04;;;;;;;2.73;2.17;;;18.60;55.00;;;;;;5072443;28;20670;-76
2022/07/18 01:35:31;;;;;;;5.40;2.70;;;18.60;55.20;;;;;;5060747;28;20590;-77
2022/07/18 01:38:00;;;;;;;4.93;3.03;;;18.60;55.60;;;;;;5068863;28;20268;-75
2022/07/18 01:40:26;;;;;;;5.70;2.63;;;18.60;55.40;;;;;;5066739;28;20966;-76
2022/07/18 01:42:52;;;;;;;3.00;2.57;;;18.60;54.90;;;;;;5067907;28;20509;-76
2022/07/18 01:45:18;;;;;;;3.57;3.00;;;18.60;55.00;;;;;;5064966;28;20523;-75
2022/07/18 01:47:44;;;;;;;5.70;3.10;;;18.50;55.40;;;;;;5065665;28;20466;-74
2022/07/18 01:50:11;;;;;;;3.73;3.00;;;18.50;55.40;;;;;;5065405;28;20415;-75
2022/07/18 01:52:37;;;;;;;3.73;2.23;;;18.40;55.60;;;;;;5060700;28;20179;-75
2022/07/18 01:55:05;;;;;;;6.40;4.00;;;18.40;56.00;;;;;;5068055;28;21715;-74
2022/07/18 01:57:31;;;;;;;4.03;2.57;;;18.50;55.30;;;;;;5059411;28;20416;-76
2022/07/18 01:59:57;;;;;;;3.80;2.77;;;18.50;55.00;;;;;;5065574;28;20489;-75
2022/07/18 02:02:22;;;;;;;5.13;2.40;;;18.50;55.20;;;;;;5069505;28;20306;-75
2022/07/18 02:05:00;;;;;;;6.20;2.93;;;18.50;55.30;;;;;;5065565;28;20566;-74
2022/07/18 02:07:40;;;;;;;3.07;2.40;;;18.50;55.30;;;;;;5062988;28;20258;-74
2022/07/18 02:10:11;;;;;;;3.50;2.57;;;18.40;55.30;;;;;;5067996;28;20979;-76
2022/07/18 02:12:38;;;;;;;2.63;2.33;;;18.40;55.20;;;;;;5068416;28;20843;-75
2022/07/18 02:15:06;;;;;;;2.90;2.53;;;18.50;54.50;;;;;;5065835;28;20475;-73
2022/07/18 02:17:33;;;;;;;3.50;2.50;;;18.50;54.80;;;;;;5064952;28;20815;-74
2022/07/18 02:19:59;;;;;;;5.13;2.83;;;18.40;54.80;;;;;;5066782;28;20459;-74
2022/07/18 02:22:25;;;;;;;4.00;2.40;;;18.40;55.00;;;;;;5068465;28;20497;-75
2022/07/18 02:24:51;;;;;;;3.60;2.27;;;18.40;55.20;;;;;;5066714;28;20463;-74
2022/07/18 02:27:17;;;;;;;6.13;2.83;;;18.30;55.20;;;;;;5063226;28;20421;-74
2022/07/18 02:29:43;;;;;;;4.57;2.60;;;18.20;55.40;;;;;;5071352;28;20422;-75
2022/07/18 02:32:09;;;;;;;3.80;2.93;;;18.10;55.70;;;;;;5072510;28;20211;-74
2022/07/18 02:34:35;;;;;;;3.67;2.40;;;18.00;56.00;;;;;;5080748;28;20471;-75
2022/07/18 02:37:01;;;;;;;5.10;2.63;;;18.00;56.10;;;;;;5079960;28;20192;-76
2022/07/18 02:39:28;;;;;;;5.70;2.80;;;18.00;56.20;;;;;;5074807;28;20209;-73
2022/07/18 02:41:54;;;;;;;4.20;2.50;;;17.90;56.10;;;;;;5070904;28;20815;-74
2022/07/18 02:44:20;;;;;;;3.93;2.57;;;17.90;55.70;;;;;;5070969;28;20495;-75
2022/07/18 02:46:45;;;;;;;3.97;2.17;;;17.90;55.70;;;;;;5069851;28;20419;-76
2022/07/18 02:49:26;;;;;;;4.37;2.70;;;17.90;55.40;;;;;;5064902;28;20194;-74
2022/07/18 02:51:53;;;;;;;5.00;2.67;;;17.90;55.70;;;;;;5070005;28;20321;-75
2022/07/18 02:54:19;;;;;;;4.20;2.67;;;17.80;56.10;;;;;;5060289;28;21077;-75
2022/07/18 02:56:44;;;;;;;4.30;2.30;;;17.90;56.00;;;;;;5063479;28;20499;-75
2022/07/18 02:59:10;;;;;;;3.70;2.40;;;18.00;55.70;;;;;;5064617;28;20225;-76
2022/07/18 03:01:36;;;;;;;3.00;2.13;;;17.90;55.40;;;;;;5067660;28;20264;-74
2022/07/18 03:04:02;;;;;;;2.80;2.23;;;18.00;55.60;;;;;;5069773;28;20211;-74
2022/07/18 03:06:28;;;;;;;3.40;2.43;;;18.00;55.60;;;;;;5068466;28;20606;-73
2022/07/18 03:08:54;;;;;;;3.57;2.20;;;18.00;55.40;;;;;;5064986;28;20512;-75
2022/07/18 03:11:19;;;;;;;4.60;2.23;;;17.90;55.60;;;;;;5069404;28;20419;-75
2022/07/18 03:13:45;;;;;;;4.83;2.33;;;17.90;55.60;;;;;;5065567;28;20220;-72
2022/07/18 03:16:10;;;;;;;3.30;2.43;;;17.80;55.60;;;;;;5068672;28;20201;-74
2022/07/18 03:18:36;;;;;;;3.97;2.27;;;17.80;55.40;;;;;;5069229;28;20207;-75
2022/07/18 03:21:02;;;;;;;7.77;2.90;;;17.70;54.90;;;;;;5067410;28;20185;-76
2022/07/18 03:23:27;;;;;;;3.30;2.10;;;17.70;55.70;;;;;;5072308;28;20625;-76
2022/07/18 03:25:53;;;;;;;4.33;2.63;;;17.60;57.00;;;;;;5067106;28;20216;-73
2022/07/18 03:28:18;;;;;;;8.93;3.03;;;17.60;57.30;;;;;;5070051;28;20269;-75
2022/07/18 03:30:44;;;;;;;5.10;2.37;;;17.70;57.20;;;;;;5067519;28;20177;-74
2022/07/18 03:33:10;;;;;;;5.00;2.50;;;17.80;56.60;;;;;;5068186;28;20188;-75
2022/07/18 03:35:36;;;;;;;3.00;2.53;;;17.70;57.00;;;;;;5069618;28;20516;-74
2022/07/18 03:38:02;;;;;;;5.33;3.00;;;17.60;57.20;;;;;;5066647;28;20268;-76
2022/07/18 03:40:27;;;;;;;9.03;2.40;;;17.50;57.30;;;;;;5064276;28;20209;-74
2022/07/18 03:42:53;;;;;;;3.37;2.37;;;17.50;56.10;;;;;;5069655;28;20572;-75
2022/07/18 03:45:19;;;;;;;3.33;2.30;;;17.40;56.40;;;;;;5065249;28;20204;-74
2022/07/18 03:47:44;;;;;;;2.37;2.23;;;17.40;56.20;;;;;;5070471;28;20431;-73
2022/07/18 03:50:10;;;;;;;3.50;2.10;;;17.40;56.20;;;;;;5064684;28;20243;-76
2022/07/18 03:52:36;;;;;;;4.57;2.20;;;17.40;56.20;;;;;;5067974;28;20183;-76
2022/07/18 03:55:03;;;;;;;7.10;2.60;;;17.40;56.10;;;;;;5068986;28;20223;-74
2022/07/18 03:57:28;;;;;;;2.93;2.67;;;17.50;55.80;;;;;;5070605;28;20181;-74
2022/07/18 03:59:54;;;;;;;2.70;2.13;;;17.50;56.60;;;;;;5063894;28;20861;-74
2022/07/18 04:02:19;;;;;;;5.07;2.87;;;17.50;57.70;;;;;;5064341;28;20185;-76
2022/07/18 04:04:45;;;;;;;3.97;2.77;;;17.60;57.70;;;;;;5060235;28;20205;-75
2022/07/18 04:07:11;;;;;;;4.97;2.70;;;17.60;57.60;;;;;;5067210;28;20237;-75
2022/07/18 04:09:36;;;;;;;2.73;2.30;;;17.60;58.00;;;;;;5063152;28;20181;-75
2022/07/18 04:12:02;;;;;;;5.27;2.80;;;17.60;58.10;;;;;;5067605;28;20185;-74
2022/07/18 04:14:28;;;;;;;7.07;2.80;;;17.60;58.10;;;;;;5054508;28;20236;-76
2022/07/18 04:16:53;;;;;;;4.40;2.93;;;17.50;58.70;;;;;;5069107;28;20228;-75
2022/07/18 04:19:19;;;;;;;6.67;3.20;;;17.50;59.10;;;;;;5064245;28;20210;-74
2022/07/18 04:21:45;;;;;;;4.80;2.83;;;17.60;58.80;;;;;;5067456;28;20180;-76
2022/07/18 04:24:11;;;;;;;4.13;2.90;;;17.50;58.90;;;;;;5064955;28;20201;-74
2022/07/18 04:26:36;;;;;;;3.20;2.50;;;17.50;59.20;;;;;;5067931;28;20667;-77
2022/07/18 04:29:02;;;;;;;5.10;2.60;;;17.60;59.10;;;;;;5065015;28;20447;-76
2022/07/18 04:31:28;;;;;;;4.13;2.90;;;17.70;58.70;;;;;;5068340;28;20195;-75
2022/07/18 04:33:54;;;;;;;4.37;3.13;;;17.70;58.70;;;;;;5062934;28;20207;-73
2022/07/18 04:36:19;;;;;;;5.77;2.63;;;17.70;58.90;;;;;;5068115;28;20206;-74
2022/07/18 04:38:45;;;;;;;4.50;2.93;;;17.70;58.70;;;;;;5059923;28;20283;-76
2022/07/18 04:41:10;;;;;;;3.60;2.50;;;17.60;59.30;;;;;;5065161;28;20673;-74
2022/07/18 04:43:36;;;;;;;5.53;3.17;;;17.60;59.30;;;;;;5063334;28;20189;-74
2022/07/18 04:46:02;;;;;;;6.10;3.47;;;17.70;58.70;;;;;;5066181;28;20185;-74
2022/07/18 04:48:28;;;;;;;3.90;2.70;;;17.70;58.10;;;;;;5068504;28;20185;-73
2022/07/18 04:50:53;;;;;;;5.00;3.10;;;17.70;58.10;;;;;;5064330;28;20216;-76
2022/07/18 04:53:19;;;;;;;5.23;3.20;;;17.70;57.20;;;;;;5069326;28;20709;-75
2022/07/18 04:55:45;;;;;;;3.83;2.60;;;17.80;57.40;;;;;;5065313;28;20662;-76
2022/07/18 04:58:10;;;;;;;5.80;2.90;;;17.80;57.70;;;;;;5069575;28;20920;-76
2022/07/18 05:00:36;;;;;;;7.90;3.00;;;17.90;58.90;;;;;;5070097;28;20208;-74
2022/07/18 05:03:02;;;;;;;3.63;2.70;;;17.90;58.90;;;;;;5071760;28;20188;-76
2022/07/18 05:05:28;;;;;;;3.60;3.00;;;18.00;58.80;;;;;;5065530;28;20200;-73
2022/07/18 05:07:55;;;;;;;9.57;3.63;;;18.10;58.50;;;;;;5067258;28;20186;-75
2022/07/18 05:10:22;;;;;;;4.57;2.63;;;18.30;57.80;;;;;;5062357;28;20469;-76
2022/07/18 05:12:50;;;;;;;4.73;3.23;;;18.30;58.00;;;;;;5066020;28;20614;-76
2022/07/18 05:15:18;;;;;;;4.37;3.03;;;18.30;57.60;;;;;;5066593;28;20451;-75
2022/07/18 05:17:45;;;;;;;7.33;3.60;;;18.30;57.60;;;;;;5065576;28;20841;-75
2022/07/18 05:20:14;;;;;;;5.67;3.40;;;18.20;57.70;;;;;;5068781;28;20969;-75
2022/07/18 05:22:41;;;;;;;4.47;2.90;;;18.30;57.70;;;;;;5063286;28;20475;-75
2022/07/18 05:25:08;;;;;;;8.27;3.60;;;18.40;57.20;;;;;;5067710;28;20455;-75
2022/07/18 05:27:34;;;;;;;5.67;3.43;;;18.50;57.00;;;;;;5064358;28;20442;-75
2022/07/18 05:30:01;;;;;;;4.63;3.47;;;18.50;56.90;;;;;;5072051;28;20416;-75
2022/07/18 05:32:27;;;;;;;5.00;3.40;;;18.60;56.80;;;;;;5063768;28;20188;-75
2022/07/18 05:34:53;;;;;;;3.53;3.30;;;18.70;57.00;;;;;;5062457;28;20999;-75
2022/07/18 05:37:19;;;;;;;5.23;3.57;;;18.80;57.00;;;;;;5068968;28;20456;-75
2022/07/18 05:39:44;;;;;;;4.57;3.40;;;18.90;56.60;;;;;;5068326;28;20577;-76
2022/07/18 05:42:10;;;;;;;4.90;3.50;;;19.00;56.60;;;;;;5068267;28;20766;-75
2022/07/18 05:44:36;;;;;;;5.87;3.80;;;19.00;56.40;;;;;;5065134;28;20201;-76
2022/07/18 05:47:01;;;;;;;9.17;4.07;;;19.10;56.80;;;;;;5065601;28;20578;-75
2022/07/18 05:49:27;;;;;;;8.00;4.53;;;19.10;56.80;;;;;;5066909;28;20646;-75
2022/07/18 05:51:53;;;;;;;3.70;3.37;;;19.10;56.50;;;;;;5066494;28;20192;-75
2022/07/18 05:54:19;;;;;;;6.10;3.53;;;19.10;56.80;;;;;;5063613;28;20561;-75
2022/07/18 05:56:51;;;;;;;6.30;4.67;;;19.20;56.20;;;;;;5069920;28;20197;-76
2022/07/18 05:59:19;;;;;;;6.43;3.93;;;19.20;56.20;;;;;;5071110;28;20489;-74
2022/07/18 06:01:45;;;;;;;5.33;4.00;;;19.30;56.40;;;;;;5071938;28;20481;-74
2022/07/18 06:04:11;;;;;;;6.20;3.60;;;19.40;56.50;;;;;;5077122;28;20497;-76
2022/07/18 06:06:37;;;;;;;6.20;4.17;;;19.60;55.80;;;;;;5075524;28;20256;-75
2022/07/18 06:09:04;;;;;;;11.83;4.20;;;19.70;55.60;;;;;;5079359;28;20426;-77
2022/07/18 06:11:30;;;;;;;6.23;3.90;;;19.70;55.40;;;;;;5076402;28;20417;-75
2022/07/18 06:13:56;;;;;;;7.53;4.03;;;19.80;55.60;;;;;;5077527;28;20484;-76
2022/07/18 06:16:22;;;;;;;8.50;4.40;;;19.80;55.70;;;;;;5074925;28;20487;-76
2022/07/18 06:18:48;;;;;;;6.23;3.77;;;19.90;55.70;;;;;;5078293;28;20470;-75
2022/07/18 06:21:13;;;;;;;9.97;4.30;;;19.90;56.00;;;;;;5077126;28;20210;-74
2022/07/18 06:23:40;;;;;;;7.90;4.63;;;20.10;55.60;;;;;;5074631;28;20653;-75
2022/07/18 06:26:06;;;;;;;12.27;4.17;;;20.20;55.80;;;;;;5078583;28;20200;-74
2022/07/18 06:28:32;;;;;;;7.77;4.40;;;20.30;55.30;;;;;;5070208;28;20951;-74
2022/07/18 06:30:57;;;;;;;11.83;4.80;;;20.40;55.70;;;;;;5070038;28;20423;-73
2022/07/18 06:33:23;;;;;;;7.73;4.67;;;20.50;56.10;;;;;;5069975;28;20184;-75
2022/07/18 06:35:49;;;;;;;11.43;5.10;;;20.50;56.20;;;;;;5066623;28;20217;-74
2022/07/18 06:38:15;;;;;;;9.67;6.20;;;20.60;57.00;;;;;;5070456;28;20480;-74
2022/07/18 06:40:42;;;;;;;9.20;5.07;;;20.70;57.40;;;;;;5068904;28;20609;-74
2022/07/18 06:43:08;;;;;;;7.93;5.73;;;20.70;58.80;;;;;;5070422;28;20477;-74
2022/07/18 06:45:34;;;;;;;11.13;6.20;;;20.70;59.60;;;;;;5065638;28;20471;-74
2022/07/18 06:47:59;;;;;;;6.47;4.80;;;20.70;59.90;;;;;;5069823;28;20207;-74
2022/07/18 06:50:25;;;;;;;9.37;5.23;;;20.70;59.60;;;;;;5067070;28;20456;-74
2022/07/18 06:52:51;;;;;;;8.33;5.37;;;20.80;59.90;;;;;;5077919;28;20186;-73
2022/07/18 06:55:17;;;;;;;11.00;5.70;;;20.90;59.50;;;;;;5073576;28;20512;-73
2022/07/18 06:57:43;;;;;;;7.83;5.20;;;20.90;59.70;;;;;;5082981;28;20438;-74
2022/07/18 07:00:13;;;;;;;7.90;5.00;;;21.00;59.30;;;;;;5067929;28;20693;-75
2022/07/18 07:02:47;;;;;;;16.27;5.80;;;21.20;59.20;;;;;;5065031;28;20437;-73
2022/07/18 07:05:14;;;;;;;8.93;5.83;;;21.20;58.70;;;;;;5065966;28;21014;-76
2022/07/18 07:07:41;;;;;;;11.00;5.50;;;21.20;58.80;;;;;;5072105;28;20428;-74
2022/07/18 07:10:10;;;;;;;11.90;5.43;;;21.30;58.90;;;;;;5070128;28;20430;-74
2022/07/18 07:12:40;;;;;;;8.47;5.97;;;21.30;58.70;;;;;;5069601;28;20543;-74
2022/07/18 07:15:07;;;;;;;9.87;5.87;;;21.40;58.20;;;;;;5068913;28;20464;-75
2022/07/18 07:17:33;;;;;;;11.70;5.73;;;21.50;58.20;;;;;;5071651;28;20532;-75
2022/07/18 07:19:59;;;;;;;16.57;6.60;;;21.60;58.00;;;;;;5066465;28;20653;-74
2022/07/18 07:22:24;;;;;;;9.10;5.83;;;21.70;58.00;;;;;;5070288;28;20181;-73
2022/07/18 07:24:50;;;;;;;10.40;6.20;;;21.80;58.10;;;;;;5068984;28;20263;-74
2022/07/18 07:27:16;;;;;;;10.93;5.70;;;21.80;57.70;;;;;;5067712;28;20635;-75
2022/07/18 07:29:41;;;;;;;13.70;6.30;;;22.00;57.70;;;;;;5069202;28;20526;-74
2022/07/18 07:32:07;;;;;;;12.03;6.90;;;22.10;57.30;;;;;;5068801;28;20187;-75
2022/07/18 07:34:33;;;;;;;12.50;7.10;;;22.20;57.00;;;;;;5069225;28;20218;-74
2022/07/18 07:36:59;;;;;;;12.80;6.80;;;22.30;56.60;;;;;;5068484;28;20191;-74
2022/07/18 07:39:25;;;;;;;12.40;6.17;;;22.40;56.20;;;;;;5066467;28;20879;-75
2022/07/18 07:41:51;;;;;;;14.40;6.27;;;22.50;56.00;;;;;;5067923;28;20475;-75
2022/07/18 07:44:16;;;;;;;8.47;6.10;;;22.60;55.80;;;;;;5068149;28;20205;-74
2022/07/18 07:46:42;;;;;;;11.20;6.50;;;22.70;55.30;;;;;;5065119;28;20177;-75
2022/07/18 07:49:07;;;;;;;14.67;5.90;;;22.80;55.20;;;;;;5065459;28;20599;-74
2022/07/18 07:51:33;;;;;;;12.33;5.97;;;22.90;54.60;;;;;;5068131;28;20192;-74
2022/07/18 07:53:59;;;;;;;12.73;5.90;;;23.00;54.20;;;;;;5080237;28;20211;-74
2022/07/18 07:56:24;;;;;;;10.50;5.50;;;23.10;53.80;;;;;;5093314;28;20264;-75
2022/07/18 07:58:50;;;;;;;8.80;5.73;;;23.30;53.80;;;;;;5070157;28;20213;-76
2022/07/18 08:01:19;;;;;;;9.60;5.20;;;23.30;52.90;;;;;;5070874;28;20240;-75
2022/07/18 08:03:46;;;;;;;10.43;5.80;;;23.40;52.60;;;;;;5059208;28;20190;-74
2022/07/18 08:06:11;;;;;;;9.10;5.77;;;23.50;52.40;;;;;;5067761;28;20450;-75
2022/07/18 08:08:37;;;;;;;8.97;6.33;;;23.60;51.60;;;;;;5070043;28;20900;-73
2022/07/18 08:11:03;;;;;;;10.90;5.90;;;23.70;51.40;;;;;;5067967;28;20193;-74
2022/07/18 08:13:28;;;;;;;6.57;4.80;;;23.80;51.20;;;;;;5066115;28;20271;-75
2022/07/18 08:15:54;;;;;;;16.27;5.17;;;23.90;51.00;;;;;;5066139;28;20211;-76
2022/07/18 08:18:20;;;;;;;13.90;5.67;;;24.00;50.50;;;;;;5060479;28;20183;-75
2022/07/18 08:20:45;;;;;;;13.63;5.47;;;24.10;50.20;;;;;;5065655;28;20221;-75
2022/07/18 08:23:11;;;;;;;6.90;5.00;;;24.20;49.80;;;;;;5066386;28;20183;-74
2022/07/18 08:25:39;;;;;;;9.40;5.03;;;24.30;49.10;;;;;;5065426;28;20209;-75
2022/07/18 08:28:06;;;;;;;9.50;4.97;;;24.30;49.10;;;;;;5065761;28;20255;-75
2022/07/18 08:30:31;;;;;;;6.90;5.17;;;24.40;49.10;;;;;;5066795;28;20426;-75
2022/07/18 08:32:58;;;;;;;10.67;5.53;;;24.60;48.90;;;;;;5068475;28;20928;-74
2022/07/18 08:35:24;;;;;;;8.17;5.20;;;24.70;47.80;;;;;;5063660;28;20321;-74
2022/07/18 08:37:50;;;;;;;13.33;5.20;;;24.80;48.10;;;;;;5064919;28;20932;-75
2022/07/18 08:40:16;;;;;;;10.83;4.73;;;25.00;47.50;;;;;;5062690;28;20254;-74
2022/07/18 08:42:42;;;;;;;10.40;4.77;;;25.20;46.20;;;;;;5064420;28;20516;-75
2022/07/18 08:45:08;;;;;;;6.67;4.63;;;25.20;46.20;;;;;;5064864;28;20535;-74
2022/07/18 08:47:34;;;;;;;8.37;4.93;;;25.30;45.80;;;;;;5066172;28;20557;-75
2022/07/18 08:50:01;;;;;;;11.33;4.83;;;25.40;45.80;;;;;;5067144;28;20516;-74
2022/07/18 08:52:28;;;;;;;10.30;4.73;;;25.40;45.10;;;;;;5069388;28;20196;-76
2022/07/18 08:54:57;;;;;;;8.30;4.83;;;25.50;45.00;;;;;;5062327;28;20473;-75
2022/07/18 08:57:23;;;;;;;15.40;5.63;;;25.60;44.60;;;;;;5068816;28;20874;-74
2022/07/18 08:59:49;;;;;;;9.47;4.53;;;25.70;44.50;;;;;;5065423;28;20703;-74
2022/07/18 09:02:15;;;;;;;6.90;5.00;;;25.80;44.20;;;;;;5069104;28;20420;-75
2022/07/18 09:04:42;;;;;;;9.93;5.00;;;25.90;43.90;;;;;;5061229;28;20536;-76
2022/07/18 09:07:09;;;;;;;6.60;4.57;;;25.90;43.40;;;;;;5069132;28;20187;-75
2022/07/18 09:09:39;;;;;;;13.70;5.07;;;26.00;43.00;;;;;;5068321;28;20860;-74
2022/07/18 09:12:11;;;;;;;10.97;4.80;;;26.10;42.40;;;;;;5068626;28;20493;-74
2022/07/18 09:14:42;;;;;;;7.60;3.90;;;26.20;42.30;;;;;;5058791;28;20557;-75
2022/07/18 09:17:25;;;;;;;7.00;4.30;;;26.30;41.50;;;;;;5070255;28;20995;-74
2022/07/18 09:20:08;;;;;;;8.10;4.47;;;26.40;40.70;;;;;;5060595;28;20469;-74
2022/07/18 09:22:36;;;;;;;7.90;4.37;;;26.40;40.40;;;;;;5061175;28;20431;-74
2022/07/18 09:25:04;;;;;;;5.13;4.23;;;26.50;39.10;;;;;;5074317;28;20548;-75
2022/07/18 09:27:33;;;;;;;6.07;4.30;;;26.50;38.40;;;;;;5071740;28;20726;-75
2022/07/18 09:30:17;;;;;;;8.13;5.20;;;26.60;38.20;;;;;;5074417;28;20518;-75
2022/07/18 09:32:46;;;;;;;5.53;4.07;;;26.70;37.90;;;;;;5066203;28;20943;-74
2022/07/18 09:35:15;;;;;;;8.47;4.17;;;26.80;38.00;;;;;;5060706;28;20933;-74
2022/07/18 09:37:52;;;;;;;8.10;4.10;;;26.90;36.80;;;;;;5068626;28;20421;-74
2022/07/18 09:40:19;;;;;;;5.03;3.83;;;27.10;36.00;;;;;;5064952;28;20472;-74
2022/07/18 09:42:50;;;;;;;5.40;3.83;;;27.10;36.40;;;;;;5063067;28;20433;-74
2022/07/18 09:45:16;;;;;;;6.23;3.90;;;27.30;35.50;;;;;;5061888;28;20467;-74
2022/07/18 09:47:59;;;;;;;7.23;3.83;;;27.40;35.30;;;;;;5062428;28;20481;-74
2022/07/18 09:50:35;;;;;;;6.00;4.10;;;27.50;34.90;;;;;;5065722;28;20425;-75
2022/07/18 09:53:13;;;;;;;4.80;3.80;;;27.60;33.90;;;;;;5071697;28;20876;-74
2022/07/18 09:55:48;;;;;;;5.13;4.17;;;27.80;33.70;;;;;;5062090;28;20476;-74
2022/07/18 09:58:17;;;;;;;4.43;4.00;;;27.90;33.20;;;;;;5062946;28;20424;-73
2022/07/18 10:00:44;;;;;;;7.13;4.10;;;27.80;32.90;;;;;;5064909;28;20976;-73
2022/07/18 10:03:09;;;;;;;5.97;3.90;;;27.80;32.90;;;;;;5063930;28;20979;-75
2022/07/18 10:05:38;;;;;;;4.10;3.70;;;28.00;32.40;;;;;;5065317;28;20599;-74
2022/07/18 10:08:09;;;;;;;7.77;4.57;;;28.20;32.10;;;;;;5064617;28;20192;-76
2022/07/18 10:10:36;;;;;;;5.50;3.97;;;28.20;32.30;;;;;;5071704;28;20418;-74
2022/07/18 10:13:03;;;;;;;7.30;4.13;;;28.30;31.10;;;;;;5067612;28;20427;-77
2022/07/18 10:15:32;;;;;;;9.63;3.90;;;28.60;30.80;;;;;;5070939;28;20488;-75
2022/07/18 10:17:59;;;;;;;10.00;3.47;;;29.00;29.90;;;;;;5067934;28;20780;-75
2022/07/18 10:20:32;;;;;;;3.73;3.40;;;29.30;30.10;;;;;;5066328;28;21058;-74
2022/07/18 10:23:01;;;;;;;5.43;3.87;;;29.60;29.10;;;;;;5064347;28;20446;-77
2022/07/18 10:25:27;;;;;;;4.80;3.87;;;29.60;28.80;;;;;;5066864;28;20469;-75
2022/07/18 10:28:02;;;;;;;3.63;3.00;;;29.70;28.80;;;;;;5062743;28;20438;-75
2022/07/18 10:30:53;;;;;;;4.40;3.87;;;29.80;28.50;;;;;;5067018;28;20949;-75
2022/07/18 10:33:40;;;;;;;7.47;4.00;;;30.00;27.70;;;;;;5066886;28;20523;-75
2022/07/18 10:36:09;;;;;;;5.80;3.67;;;30.10;27.20;;;;;;5062030;28;20450;-73
2022/07/18 10:38:35;;;;;;;4.93;3.83;;;30.10;27.60;;;;;;5065638;28;20411;-74
2022/07/18 10:41:12;;;;;;;3.80;3.13;;;30.20;28.20;;;;;;5066507;28;20430;-75
2022/07/18 10:43:44;;;;;;;4.37;3.17;;;30.50;28.60;;;;;;5065578;28;20434;-74
2022/07/18 10:46:11;;;;;;;5.40;3.47;;;31.10;27.90;;;;;;5062076;28;20476;-74
2022/07/18 10:48:40;;;;;;;5.37;3.50;;;31.70;26.90;;;;;;5063247;28;20415;-74
2022/07/18 10:51:10;;;;;;;4.53;3.77;;;31.80;26.20;;;;;;5068618;28;20422;-75
2022/07/18 10:53:54;;;;;;;3.80;3.30;;;31.40;26.70;;;;;;5068750;28;20471;-75
2022/07/18 10:56:23;;;;;;;3.33;2.90;;;31.80;26.10;;;;;;5066033;28;20425;-75
2022/07/18 10:58:48;;;;;;;4.63;3.13;;;31.70;25.50;;;;;;5070463;28;20430;-75
2022/07/18 11:01:18;;;;;;;4.87;3.07;;;31.40;25.80;;;;;;5057366;28;20496;-74
2022/07/18 11:03:44;;;;;;;4.73;2.93;;;31.20;26.20;;;;;;5068553;28;20264;-76
2022/07/18 11:06:09;;;;;;;3.63;2.60;;;31.20;26.30;;;;;;5068544;28;20529;-75
2022/07/18 11:08:36;;;;;;;4.80;3.33;;;31.80;25.90;;;;;;5070376;28;20414;-75
2022/07/18 11:11:01;;;;;;;3.43;2.80;;;32.30;25.70;;;;;;5073449;28;20543;-75
2022/07/18 11:16:08;;;;;;;3.47;3.30;;;32.20;25.20;;;;;;5087005;28;20228;-75
2022/07/18 11:18:54;;;;;;;6.03;2.90;;;32.10;24.70;;;;;;5086298;28;20433;-74
2022/07/18 11:21:31;;;;;;;3.80;3.17;;;31.30;25.40;;;;;;5071269;28;20449;-74
2022/07/18 11:24:02;;;;;;;4.10;3.10;;;31.90;25.20;;;;;;5068731;28;20495;-73
2022/07/18 11:26:28;;;;;;;5.27;3.20;;;32.20;24.80;;;;;;5073007;28;20497;-75
2022/07/18 11:28:59;;;;;;;5.13;2.90;;;32.50;24.20;;;;;;5069648;28;20419;-75
2022/07/18 11:31:25;;;;;;;4.30;3.27;;;32.30;24.20;;;;;;5070457;28;20442;-75
2022/07/18 11:33:51;;;;;;;3.50;2.80;;;32.20;24.50;;;;;;5066652;28;20438;-75
2022/07/18 11:36:22;;;;;;;4.00;3.00;;;32.20;24.60;;;;;;5064902;28;20406;-75
2022/07/18 11:38:49;;;;;;;3.47;2.97;;;32.70;24.40;;;;;;5065556;28;20225;-74
2022/07/18 11:41:15;;;;;;;4.33;3.00;;;32.70;24.40;;;;;;5067789;28;20916;-75
2022/07/18 11:43:44;;;;;;;9.47;3.57;;;33.10;23.90;;;;;;5070934;28;20943;-74
2022/07/18 11:46:13;;;;;;;3.20;2.90;;;33.10;24.00;;;;;;5066384;28;20893;-74
2022/07/18 11:48:41;;;;;;;3.87;3.50;;;33.00;23.70;;;;;;5062836;28;20445;-74
2022/07/18 11:51:14;;;;;;;4.80;3.07;;;32.40;24.50;;;;;;5070085;28;20415;-75
2022/07/18 11:53:48;;;;;;;3.00;2.90;;;32.10;24.60;;;;;;5065553;28;20419;-74
2022/07/18 11:56:15;;;;;;;3.60;2.80;;;31.70;25.20;;;;;;5069835;28;20429;-75
2022/07/18 11:58:42;;;;;;;4.27;2.60;;;32.00;24.40;;;;;;5069787;28;20450;-75
2022/07/18 12:01:09;;;;;;;3.50;2.13;;;32.20;24.10;;;;;;5064180;28;20441;-74
2022/07/18 12:03:37;;;;;;;3.83;2.60;;;32.60;23.60;;;;;;5066873;28;20429;-74
2022/07/18 12:06:12;;;;;;;3.77;2.50;;;32.60;23.50;;;;;;5065181;28;20512;-75
2022/07/18 12:08:44;;;;;;;3.30;2.30;;;32.70;23.30;;;;;;5063483;28;20469;-74
2022/07/18 12:11:34;;;;;;;3.23;2.53;;;32.80;23.10;;;;;;5066864;28;20464;-74
2022/07/18 12:14:06;;;;;;;4.90;2.47;;;32.70;23.20;;;;;;5065829;28;20442;-75
2022/07/18 12:16:37;;;;;;;3.03;2.50;;;33.30;23.00;;;;;;5068139;28;20585;-75
2022/07/18 12:19:10;;;;;;;4.60;2.80;;;33.30;22.90;;;;;;5068961;28;21910;-74
2022/07/18 12:21:49;;;;;;;3.60;2.40;;;33.60;22.80;;;;;;5059249;28;20411;-75
2022/07/18 12:24:25;;;;;;;6.00;2.90;;;33.90;21.80;;;;;;5067842;28;20458;-75
2022/07/18 12:27:21;;;;;;;13.10;3.80;;;33.90;22.00;;;;;;5069663;28;20750;-75
2022/07/18 12:30:03;;;;;;;4.90;3.10;;;33.90;22.50;;;;;;5043794;28;20454;-75
2022/07/18 12:32:53;;;;;;;5.30;2.80;;;33.20;22.60;;;;;;5029695;28;20431;-74
2022/07/18 12:35:28;;;;;;;5.30;3.00;;;32.70;23.80;;;;;;5041834;28;20582;-75
2022/07/18 12:38:01;;;;;;;2.70;2.50;;;33.10;23.70;;;;;;5046896;28;20430;-74
2022/07/18 12:40:46;;;;;;;3.60;2.73;;;33.50;23.60;;;;;;5041322;28;20585;-74
2022/07/18 12:43:32;;;;;;;4.20;2.83;;;33.10;23.30;;;;;;5046711;28;20423;-74
2022/07/18 12:46:00;;;;;;;3.20;2.80;;;33.10;23.40;;;;;;5039701;28;20462;-74
2022/07/18 12:48:30;;;;;;;4.73;3.00;;;33.40;23.70;;;;;;5039885;28;20432;-74
2022/07/18 12:51:04;;;;;;;7.00;3.20;;;33.60;23.50;;;;;;5043926;28;21048;-75
2022/07/18 12:53:31;;;;;;;5.97;2.80;;;33.80;23.20;;;;;;5043099;28;20435;-74